createdAt,value
2024-02-29T00:00:55.409Z,88.96
2024-02-29T00:03:43.488Z,89.34
2024-02-29T00:06:12.150Z,89.29
2024-02-29T00:08:40.430Z,89.44
2024-02-29T00:11:09.072Z,88.85
2024-02-29T00:13:37.389Z,88.74
2024-02-29T00:16:06.780Z,89.25
2024-02-29T00:18:35.263Z,89.15
2024-02-29T00:21:05.769Z,89.73
2024-02-29T00:23:34.088Z,89.60
2024-02-29T00:26:02.667Z,89.72
2024-02-29T00:28:30.265Z,89.54
2024-02-29T00:30:59.132Z,89.76
2024-02-29T00:33:27.629Z,90.13
2024-02-29T00:36:08.623Z,90.37
2024-02-29T00:38:40.041Z,89.82
2024-02-29T00:41:11.557Z,89.77
2024-02-29T00:43:40.924Z,90.14
2024-02-29T00:46:09.935Z,90.42
2024-02-29T00:48:38.260Z,90.16
2024-02-29T00:51:07.097Z,89.92
2024-02-29T00:53:35.433Z,90.85
2024-02-29T00:56:05.954Z,90.20
2024-02-29T00:58:34.172Z,90.57
2024-02-29T01:01:02.924Z,90.73
2024-02-29T01:03:34.038Z,90.84
2024-02-29T01:06:05.574Z,90.54
2024-02-29T01:08:33.829Z,91.25
2024-02-29T01:11:04.752Z,91.50
2024-02-29T01:13:34.554Z,91.02
2024-02-29T01:16:03.279Z,91.13
2024-02-29T01:18:31.651Z,91.50
2024-02-29T01:21:00.294Z,90.80
2024-02-29T01:23:28.492Z,91.54
2024-02-29T01:25:57.123Z,91.21
2024-02-29T01:28:25.429Z,90.83
2024-02-29T01:30:55.369Z,90.92
2024-02-29T01:33:23.782Z,91.22
2024-02-29T01:35:52.414Z,90.72
2024-02-29T01:38:20.769Z,90.30
2024-02-29T01:40:49.364Z,90.94
2024-02-29T01:43:18.008Z,91.51
2024-02-29T01:45:47.431Z,91.70
2024-02-29T01:48:17.493Z,91.61
2024-02-29T01:50:46.334Z,91.40
2024-02-29T01:53:14.597Z,91.42
2024-02-29T01:55:43.183Z,91.53
2024-02-29T01:58:13.871Z,91.60
2024-02-29T02:00:42.881Z,91.00
2024-02-29T02:03:11.447Z,90.91
2024-02-29T02:05:41.658Z,90.98
2024-02-29T02:08:10.476Z,90.75
2024-02-29T02:10:39.235Z,90.82
2024-02-29T02:13:08.995Z,90.63
2024-02-29T02:15:37.775Z,90.18
2024-02-29T02:18:06.691Z,88.30
2024-02-29T02:20:37.189Z,88.63
2024-02-29T02:23:05.742Z,89.51
2024-02-29T02:25:34.365Z,89.69
2024-02-29T02:28:03.141Z,89.29
2024-02-29T02:30:31.903Z,89.94
2024-02-29T02:33:01.880Z,89.60
2024-02-29T02:35:30.538Z,88.90
2024-02-29T02:38:00.193Z,88.74
2024-02-29T02:40:30.066Z,88.25
2024-02-29T02:42:59.650Z,88.75
2024-02-29T02:45:28.348Z,88.88
2024-02-29T02:47:56.791Z,87.74
2024-02-29T02:50:26.259Z,87.81
2024-02-29T02:52:54.583Z,87.56
2024-02-29T02:55:24.681Z,87.82
2024-02-29T02:57:53.131Z,87.15
2024-02-29T03:00:22.012Z,87.64
2024-02-29T03:02:50.480Z,87.77
2024-02-29T03:05:19.733Z,87.84
2024-02-29T03:07:48.453Z,87.96
2024-02-29T03:10:17.169Z,87.72
2024-02-29T03:12:48.360Z,87.69
2024-02-29T03:15:17.585Z,87.86
2024-02-29T03:17:45.875Z,87.80
2024-02-29T03:20:14.638Z,88.57
2024-02-29T03:22:43.310Z,87.74
2024-02-29T03:25:12.260Z,88.07
2024-02-29T03:27:40.770Z,88.21
2024-02-29T03:30:11.849Z,88.65
2024-02-29T03:32:39.174Z,89.23
2024-02-29T03:35:08.147Z,89.08
2024-02-29T03:37:38.123Z,90.01
2024-02-29T03:40:08.095Z,89.85
2024-02-29T03:42:36.155Z,90.20
2024-02-29T03:45:05.017Z,90.39
2024-02-29T03:47:34.674Z,90.16
2024-02-29T03:50:03.583Z,90.40
2024-02-29T03:52:31.884Z,90.95
2024-02-29T03:55:00.655Z,90.55
2024-02-29T03:57:28.965Z,90.55
2024-02-29T03:59:57.955Z,90.58
2024-02-29T04:02:26.226Z,90.15
2024-02-29T04:04:56.762Z,90.77
2024-02-29T04:07:25.179Z,90.10
2024-02-29T04:09:56.060Z,90.42
2024-02-29T04:12:24.770Z,90.59
2024-02-29T04:14:53.343Z,91.10
2024-02-29T04:17:21.942Z,90.91
2024-02-29T04:19:50.675Z,90.41
2024-02-29T04:22:20.272Z,90.07
2024-02-29T04:24:48.883Z,90.47
2024-02-29T04:27:17.293Z,90.30
2024-02-29T04:29:46.971Z,90.14
2024-02-29T04:32:15.303Z,90.19
2024-02-29T04:34:44.366Z,89.91
2024-02-29T04:37:12.579Z,90.55
2024-02-29T04:39:42.641Z,90.47
2024-02-29T04:42:10.699Z,90.14
2024-02-29T04:44:39.911Z,90.36
2024-02-29T04:47:08.653Z,90.17
2024-02-29T04:49:37.502Z,90.01
2024-02-29T04:52:06.818Z,90.37
2024-02-29T04:54:35.575Z,90.57
2024-02-29T04:57:05.363Z,90.76
2024-02-29T04:59:33.972Z,90.09
2024-02-29T05:02:02.806Z,90.54
2024-02-29T05:04:31.607Z,90.42
2024-02-29T05:07:00.082Z,90.33
2024-02-29T05:09:28.857Z,90.81
2024-02-29T05:11:57.164Z,90.89
2024-02-29T05:14:28.045Z,90.44
2024-02-29T05:16:56.484Z,90.67
2024-02-29T05:19:25.517Z,90.30
2024-02-29T05:21:53.899Z,90.57
2024-02-29T05:24:22.594Z,90.49
2024-02-29T05:26:51.286Z,90.33
2024-02-29T05:29:19.950Z,89.82
2024-02-29T05:31:54.152Z,90.31
2024-02-29T05:34:25.092Z,90.08
2024-02-29T05:36:54.202Z,90.63
2024-02-29T05:39:22.859Z,90.48
2024-02-29T05:41:51.193Z,90.72
2024-02-29T05:44:20.568Z,90.66
2024-02-29T05:46:48.812Z,90.16
2024-02-29T05:49:19.219Z,90.72
2024-02-29T05:51:47.517Z,90.80
2024-02-29T05:54:16.502Z,90.13
2024-02-29T05:56:45.025Z,89.65
2024-02-29T05:59:13.980Z,90.00
2024-02-29T06:01:42.266Z,90.10
2024-02-29T06:04:10.977Z,90.27
2024-02-29T06:06:40.652Z,89.62
2024-02-29T06:09:13.804Z,89.64
2024-02-29T06:11:41.995Z,89.93
2024-02-29T06:14:11.521Z,89.49
2024-02-29T06:16:39.728Z,89.13
2024-02-29T06:19:08.394Z,89.66
2024-02-29T06:21:36.781Z,89.54
2024-02-29T06:24:07.069Z,89.47
2024-02-29T06:26:36.060Z,89.23
2024-02-29T06:29:04.703Z,89.03
2024-02-29T06:31:32.908Z,89.27
2024-02-29T06:34:01.684Z,88.96
2024-02-29T06:36:30.086Z,88.68
2024-02-29T06:38:58.706Z,89.12
2024-02-29T06:41:28.768Z,89.24
2024-02-29T06:43:57.290Z,88.58
2024-02-29T06:46:25.610Z,89.05
2024-02-29T06:48:54.243Z,88.70
2024-02-29T06:51:22.524Z,89.29
2024-02-29T06:53:51.102Z,88.63
2024-02-29T06:56:19.449Z,88.26
2024-02-29T06:58:49.403Z,88.26
2024-02-29T07:01:21.002Z,87.99
2024-02-29T07:03:50.029Z,87.74
2024-02-29T07:06:18.595Z,88.21
2024-02-29T07:08:48.473Z,88.82
2024-02-29T07:11:16.881Z,88.09
2024-02-29T07:13:47.568Z,87.32
2024-02-29T07:16:20.504Z,86.62
2024-02-29T07:18:49.407Z,85.68
2024-02-29T07:21:17.814Z,85.35
2024-02-29T07:23:46.548Z,84.80
2024-02-29T07:26:14.883Z,84.95
2024-02-29T07:28:43.433Z,84.96
2024-02-29T07:31:13.214Z,84.55
2024-02-29T07:33:43.276Z,84.57
2024-02-29T07:36:11.552Z,84.49
2024-02-29T07:38:40.212Z,84.20
2024-02-29T07:41:08.401Z,83.94
2024-02-29T07:43:37.080Z,84.28
2024-02-29T07:46:05.992Z,83.64
2024-02-29T07:48:34.763Z,83.02
2024-02-29T07:51:04.447Z,83.06
2024-02-29T07:53:33.086Z,82.23
2024-02-29T07:56:01.275Z,82.29
2024-02-29T07:58:30.102Z,82.96
2024-02-29T08:00:58.742Z,82.39
2024-02-29T08:03:27.411Z,82.38
2024-02-29T08:05:56.867Z,80.62
2024-02-29T08:08:26.952Z,80.84
2024-02-29T08:10:55.351Z,78.89
2024-02-29T08:13:24.217Z,80.00
2024-02-29T08:15:52.735Z,81.09
2024-02-29T08:18:21.407Z,80.07
2024-02-29T08:20:49.787Z,79.78
2024-02-29T08:23:18.455Z,78.80
2024-02-29T08:25:48.057Z,79.00
2024-02-29T08:28:16.986Z,79.23
2024-02-29T08:30:45.710Z,78.04
2024-02-29T08:33:14.576Z,78.68
2024-02-29T08:35:42.981Z,79.34
2024-02-29T08:38:11.652Z,78.57
2024-02-29T08:40:39.358Z,78.57
2024-02-29T08:43:09.390Z,78.69
2024-02-29T08:45:37.514Z,78.75
2024-02-29T08:48:06.649Z,78.59
2024-02-29T08:50:34.956Z,76.79
2024-02-29T08:53:03.524Z,76.49
2024-02-29T08:55:32.040Z,76.73
2024-02-29T08:58:00.782Z,76.00
2024-02-29T09:00:30.549Z,75.89
2024-02-29T09:02:59.144Z,75.80
2024-02-29T09:05:27.398Z,75.62
2024-02-29T09:07:55.980Z,74.40
2024-02-29T09:10:25.869Z,74.10
2024-02-29T09:12:55.901Z,73.05
2024-02-29T09:15:23.992Z,71.12
2024-02-29T09:17:54.078Z,69.00
2024-02-29T09:20:23.250Z,63.70
2024-02-29T09:22:51.847Z,58.06
2024-02-29T09:25:20.485Z,58.01
2024-02-29T09:27:51.129Z,55.08
2024-02-29T09:30:19.630Z,55.65
2024-02-29T09:32:53.401Z,57.88
2024-02-29T09:35:26.497Z,60.32
2024-02-29T09:37:55.174Z,60.40
2024-02-29T09:40:23.614Z,59.54
2024-02-29T09:42:52.414Z,58.76
2024-02-29T09:45:25.350Z,59.99
2024-02-29T09:47:54.592Z,57.09
2024-02-29T09:50:24.298Z,53.36
2024-02-29T09:52:55.891Z,52.70
2024-02-29T09:55:24.381Z,55.36
2024-02-29T09:57:53.517Z,52.48
2024-02-29T10:00:22.683Z,51.85
2024-02-29T10:02:55.755Z,52.70
2024-02-29T10:05:26.315Z,52.46
2024-02-29T10:07:55.139Z,51.47
2024-02-29T10:10:23.733Z,52.75
2024-02-29T10:12:56.905Z,52.83
2024-02-29T10:15:29.525Z,53.79
2024-02-29T10:17:58.618Z,54.18
2024-02-29T10:20:28.984Z,53.49
2024-02-29T10:22:58.090Z,51.97
2024-02-29T10:25:28.092Z,52.14
2024-02-29T10:28:05.419Z,54.34
2024-02-29T10:30:33.986Z,53.03
2024-02-29T10:33:03.404Z,55.22
2024-02-29T10:35:33.032Z,54.69
2024-02-29T10:38:01.816Z,55.27
2024-02-29T10:40:30.167Z,52.16
2024-02-29T10:43:02.770Z,51.48
2024-02-29T10:45:34.305Z,51.29
2024-02-29T10:48:13.340Z,50.27
2024-02-29T10:50:56.692Z,51.30
2024-02-29T10:53:38.614Z,49.11
2024-02-29T10:56:13.566Z,47.28
2024-02-29T10:58:43.637Z,44.98
2024-02-29T11:01:13.810Z,43.88
2024-02-29T11:03:43.440Z,46.83
2024-02-29T11:06:14.058Z,49.87
2024-02-29T11:08:43.226Z,53.17
2024-02-29T11:11:13.255Z,52.13
2024-02-29T11:13:41.957Z,52.19
2024-02-29T11:16:12.372Z,52.17
2024-02-29T11:18:42.392Z,52.31
2024-02-29T11:21:10.993Z,52.65
2024-02-29T11:23:42.294Z,57.10
2024-02-29T11:26:12.021Z,53.86
2024-02-29T11:28:43.355Z,53.08
2024-02-29T11:31:19.196Z,52.71
2024-02-29T11:33:48.618Z,51.14
2024-02-29T11:36:16.995Z,52.23
2024-02-29T11:38:47.307Z,52.71
2024-02-29T11:41:16.881Z,53.26
2024-02-29T11:43:46.970Z,51.41
2024-02-29T11:46:16.943Z,51.70
2024-02-29T11:48:45.887Z,50.43
2024-02-29T11:51:14.120Z,48.18
2024-02-29T11:53:42.988Z,47.34
2024-02-29T11:56:15.928Z,48.41
2024-02-29T11:58:46.881Z,49.93
2024-02-29T12:01:15.680Z,53.50
2024-02-29T12:03:46.390Z,51.75
2024-02-29T12:06:15.079Z,50.88
2024-02-29T12:08:46.032Z,52.47
2024-02-29T12:11:16.513Z,52.83
2024-02-29T12:13:45.323Z,51.88
2024-02-29T12:16:14.105Z,51.80
2024-02-29T12:18:43.235Z,53.75
2024-02-29T12:21:11.920Z,53.60
2024-02-29T12:23:41.402Z,52.31
2024-02-29T12:26:11.260Z,53.80
2024-02-29T12:28:42.020Z,54.30
2024-02-29T12:31:11.220Z,52.05
2024-02-29T12:33:40.915Z,53.50
2024-02-29T12:36:10.130Z,53.24
2024-02-29T12:38:38.866Z,54.79
2024-02-29T12:41:08.049Z,53.50
2024-02-29T12:43:38.033Z,53.79
2024-02-29T12:46:09.220Z,54.07
2024-02-29T12:48:38.134Z,53.84
2024-02-29T12:51:09.361Z,53.29
2024-02-29T12:53:38.298Z,53.37
2024-02-29T12:56:06.856Z,53.50
2024-02-29T12:58:35.673Z,54.88
2024-02-29T13:01:07.030Z,54.23
2024-02-29T13:03:37.768Z,54.62
2024-02-29T13:06:07.002Z,55.14
2024-02-29T13:08:36.138Z,54.15
2024-02-29T13:11:04.422Z,53.34
2024-02-29T13:13:33.281Z,51.40
2024-02-29T13:16:01.925Z,52.35
2024-02-29T13:18:30.594Z,52.55
2024-02-29T13:21:01.308Z,52.55
2024-02-29T13:23:31.033Z,51.81
2024-02-29T13:26:02.438Z,52.32
2024-02-29T13:28:31.493Z,53.52
2024-02-29T13:30:59.809Z,53.72
2024-02-29T13:33:29.184Z,53.20
2024-02-29T13:35:57.586Z,52.64
2024-02-29T13:38:29.819Z,53.09
2024-02-29T13:40:58.125Z,51.20
2024-02-29T13:43:28.044Z,51.30
2024-02-29T13:45:56.496Z,51.93
2024-02-29T13:48:25.225Z,51.72
2024-02-29T13:50:53.528Z,51.20
2024-02-29T13:53:22.289Z,51.18
2024-02-29T13:55:52.034Z,52.13
2024-02-29T13:58:21.024Z,51.00
2024-02-29T14:00:49.477Z,53.27
2024-02-29T14:03:18.128Z,52.71
2024-02-29T14:05:46.426Z,53.49
2024-02-29T14:08:15.066Z,52.88
2024-02-29T14:10:43.342Z,53.65
2024-02-29T14:13:13.345Z,54.11
2024-02-29T14:15:41.724Z,54.21
2024-02-29T14:18:11.678Z,55.08
2024-02-29T14:20:40.031Z,55.59
2024-02-29T14:23:08.662Z,56.56
2024-02-29T14:25:37.016Z,57.36
2024-02-29T14:28:06.233Z,58.28
2024-02-29T14:30:37.955Z,57.63
2024-02-29T14:33:07.111Z,57.48
2024-02-29T14:35:36.369Z,57.85
2024-02-29T14:38:06.514Z,58.49
2024-02-29T14:40:35.615Z,58.77
2024-02-29T14:43:05.846Z,59.25
2024-02-29T14:45:36.817Z,60.07
2024-02-29T14:48:08.279Z,59.67
2024-02-29T14:50:36.957Z,59.66
2024-02-29T14:53:06.042Z,59.80
2024-02-29T14:55:34.373Z,60.61
2024-02-29T14:58:03.576Z,60.95
2024-02-29T15:00:32.277Z,61.58
2024-02-29T15:03:00.966Z,62.02
2024-02-29T15:05:30.648Z,62.46
2024-02-29T15:08:02.236Z,62.86
2024-02-29T15:10:30.555Z,63.32
2024-02-29T15:12:59.346Z,63.61
2024-02-29T15:15:29.510Z,64.46
2024-02-29T15:17:58.590Z,64.48
2024-02-29T15:20:27.083Z,65.78
2024-02-29T15:22:57.222Z,66.29
2024-02-29T15:25:29.094Z,66.63
2024-02-29T15:28:00.120Z,66.86
2024-02-29T15:30:28.656Z,67.83
2024-02-29T15:32:57.398Z,67.19
2024-02-29T15:35:25.721Z,67.42
2024-02-29T15:37:55.501Z,67.95
2024-02-29T15:40:25.335Z,68.32
2024-02-29T15:42:54.136Z,68.00
2024-02-29T15:45:22.447Z,68.52
2024-02-29T15:47:51.364Z,68.78
2024-02-29T15:50:19.805Z,69.04
2024-02-29T15:52:48.626Z,69.47
2024-02-29T15:55:17.146Z,70.04
2024-02-29T15:57:47.211Z,69.90
2024-02-29T16:00:16.606Z,70.43
2024-02-29T16:02:45.544Z,70.95
2024-02-29T16:05:14.028Z,71.85
2024-02-29T16:07:42.614Z,71.50
2024-02-29T16:10:11.490Z,71.55
2024-02-29T16:12:40.999Z,72.06
2024-02-29T16:15:13.481Z,73.34
2024-02-29T16:17:43.092Z,73.76
2024-02-29T16:20:12.592Z,73.80
2024-02-29T16:22:41.970Z,74.71
2024-02-29T16:25:10.660Z,74.47
2024-02-29T16:27:39.741Z,74.94
2024-02-29T16:30:10.674Z,76.26
2024-02-29T16:32:40.878Z,76.44
2024-02-29T16:35:11.312Z,76.60
2024-02-29T16:37:40.320Z,77.03
2024-02-29T16:40:10.912Z,77.06
2024-02-29T16:42:39.867Z,77.55
2024-02-29T16:45:10.715Z,78.00
2024-02-29T16:47:40.214Z,79.33
2024-02-29T16:50:09.162Z,78.52
2024-02-29T16:52:38.010Z,79.14
2024-02-29T16:55:06.784Z,78.83
2024-02-29T16:57:37.293Z,79.45
2024-02-29T17:00:06.427Z,79.92
2024-02-29T17:02:36.450Z,80.03
2024-02-29T17:05:05.253Z,80.27
2024-02-29T17:07:33.942Z,80.78
2024-02-29T17:10:02.440Z,80.99
2024-02-29T17:12:32.034Z,80.89
2024-02-29T17:15:00.380Z,81.69
2024-02-29T17:17:30.226Z,81.43
2024-02-29T17:19:59.817Z,81.43
2024-02-29T17:22:29.263Z,81.73
2024-02-29T17:24:57.630Z,82.35
2024-02-29T17:27:26.916Z,83.37
2024-02-29T17:29:55.920Z,83.17
2024-02-29T17:32:26.382Z,83.69
2024-02-29T17:34:54.929Z,84.77
2024-02-29T17:37:27.125Z,84.59
2024-02-29T17:39:57.359Z,84.04
2024-02-29T17:42:26.559Z,84.33
2024-02-29T17:44:54.924Z,84.94
2024-02-29T17:47:23.732Z,85.37
2024-02-29T17:49:52.683Z,85.97
2024-02-29T17:52:21.476Z,86.27
2024-02-29T17:54:51.204Z,86.34
2024-02-29T17:57:20.009Z,86.86
2024-02-29T17:59:48.244Z,87.24
2024-02-29T18:02:19.851Z,90.55
2024-02-29T18:04:50.428Z,88.34
2024-02-29T18:07:19.380Z,88.48
2024-02-29T18:09:47.692Z,87.57
2024-02-29T18:12:17.866Z,88.15
2024-02-29T18:14:46.294Z,88.42
2024-02-29T18:17:15.078Z,88.21
2024-02-29T18:19:44.580Z,87.84
2024-02-29T18:22:13.645Z,88.12
2024-02-29T18:24:42.399Z,88.80
2024-02-29T18:27:12.241Z,88.09
2024-02-29T18:29:41.971Z,88.14
2024-02-29T18:32:10.890Z,86.90
2024-02-29T18:34:39.306Z,88.37
2024-02-29T18:37:08.276Z,88.73
2024-02-29T18:39:36.874Z,89.18
2024-02-29T18:42:05.710Z,88.89
2024-02-29T18:44:34.408Z,88.13
2024-02-29T18:47:05.758Z,87.60
2024-02-29T18:49:34.222Z,86.91
2024-02-29T18:52:03.763Z,87.57
2024-02-29T18:54:32.243Z,88.37
2024-02-29T18:57:01.106Z,87.71
2024-02-29T18:59:30.897Z,87.63
2024-02-29T19:02:00.515Z,87.65
2024-02-29T19:04:31.532Z,88.44
2024-02-29T19:07:00.218Z,89.44
2024-02-29T19:09:28.490Z,90.14
2024-02-29T19:11:57.221Z,90.57
2024-02-29T19:14:25.737Z,89.40
2024-02-29T19:16:54.999Z,88.83
2024-02-29T19:19:23.449Z,88.75
2024-02-29T19:21:53.571Z,88.30
2024-02-29T19:24:21.919Z,88.64
2024-02-29T19:26:50.549Z,89.33
2024-02-29T19:29:18.847Z,89.10
2024-02-29T19:31:47.881Z,88.23
2024-02-29T19:34:16.302Z,88.68
2024-02-29T19:36:45.399Z,88.14
2024-02-29T19:39:15.411Z,88.61
2024-02-29T19:41:44.546Z,88.39
2024-02-29T19:44:13.551Z,89.13
2024-02-29T19:46:45.840Z,89.02
2024-02-29T19:49:14.509Z,88.61
2024-02-29T19:51:44.266Z,88.41
2024-02-29T19:54:12.738Z,88.70
2024-02-29T19:56:43.208Z,89.25
2024-02-29T19:59:12.756Z,88.90
2024-02-29T20:01:42.795Z,88.40
2024-02-29T20:04:11.022Z,88.66
2024-02-29T20:06:43.384Z,88.70
2024-02-29T20:09:11.879Z,88.50
2024-02-29T20:11:42.378Z,87.82
2024-02-29T20:14:11.024Z,87.41
2024-02-29T20:16:39.929Z,86.95
2024-02-29T20:19:08.886Z,86.85
2024-02-29T20:21:37.602Z,86.33
2024-02-29T20:24:06.795Z,86.45
2024-02-29T20:26:35.566Z,86.44
2024-02-29T20:29:05.178Z,86.38
2024-02-29T20:31:35.025Z,86.59
2024-02-29T20:34:03.546Z,86.54
2024-02-29T20:36:32.226Z,85.94
2024-02-29T20:39:00.617Z,85.74
2024-02-29T20:41:29.298Z,85.17
2024-02-29T20:43:57.646Z,85.51
2024-02-29T20:46:27.752Z,85.40
2024-02-29T20:48:56.137Z,85.56
2024-02-29T20:51:24.887Z,85.26
2024-02-29T20:53:53.194Z,85.24
2024-02-29T20:56:22.019Z,85.79
2024-02-29T20:58:50.494Z,85.47
2024-02-29T21:01:19.291Z,85.08
2024-02-29T21:03:50.731Z,85.40
2024-02-29T21:06:23.808Z,85.69
2024-02-29T21:08:52.117Z,85.56
2024-02-29T21:11:21.412Z,85.69
2024-02-29T21:13:50.467Z,86.22
2024-02-29T21:16:19.192Z,85.97
2024-02-29T21:18:48.906Z,86.09
2024-02-29T21:21:19.726Z,86.05
2024-02-29T21:23:48.977Z,85.98
2024-02-29T21:26:19.224Z,86.35
2024-02-29T21:28:49.536Z,85.85
2024-02-29T21:31:18.739Z,85.95
2024-02-29T21:33:48.695Z,85.94
2024-02-29T21:36:17.554Z,85.52
2024-02-29T21:38:48.118Z,85.72
2024-02-29T21:41:16.869Z,86.64
2024-02-29T21:43:45.811Z,87.13
2024-02-29T21:46:14.861Z,87.43
2024-02-29T21:48:43.105Z,88.05
2024-02-29T21:51:18.534Z,89.12
2024-02-29T21:53:47.023Z,88.97
2024-02-29T21:56:16.235Z,89.71
2024-02-29T21:58:44.699Z,89.64
2024-02-29T22:01:13.565Z,90.13
2024-02-29T22:03:41.982Z,89.90
2024-02-29T22:06:11.987Z,90.40
2024-02-29T22:08:40.290Z,90.60
2024-02-29T22:11:10.649Z,90.93
2024-02-29T22:13:39.079Z,91.06
2024-02-29T22:16:09.345Z,91.12
2024-02-29T22:18:37.746Z,90.94
2024-02-29T22:21:08.074Z,91.20
2024-02-29T22:23:38.127Z,90.66
2024-02-29T22:26:06.764Z,90.47
2024-02-29T22:28:35.155Z,90.39
2024-02-29T22:31:04.067Z,90.83
2024-02-29T22:33:32.468Z,91.82
2024-02-29T22:36:01.330Z,93.02
2024-02-29T22:38:29.640Z,93.21
2024-02-29T22:40:59.689Z,93.38
2024-02-29T22:43:28.252Z,93.04
2024-02-29T22:45:56.907Z,93.43
2024-02-29T22:48:25.563Z,93.76
2024-02-29T22:50:57.157Z,93.79
2024-02-29T22:53:25.472Z,93.21
2024-02-29T22:55:54.343Z,93.83
2024-02-29T22:58:24.259Z,94.29
2024-02-29T23:00:54.270Z,93.68
2024-02-29T23:03:23.291Z,93.99
2024-02-29T23:05:52.103Z,93.99
2024-02-29T23:08:20.929Z,93.88
2024-02-29T23:10:49.628Z,93.54
2024-02-29T23:13:18.087Z,93.90
2024-02-29T23:15:50.159Z,93.57
2024-02-29T23:18:18.547Z,93.91
2024-02-29T23:20:47.825Z,93.88
2024-02-29T23:23:16.235Z,94.05
2024-02-29T23:25:45.221Z,94.29
2024-02-29T23:28:13.553Z,94.29
2024-02-29T23:30:42.328Z,94.47
2024-02-29T23:33:12.028Z,94.48
2024-02-29T23:35:40.525Z,94.43
2024-02-29T23:38:08.876Z,94.60
2024-02-29T23:40:37.573Z,94.30
2024-02-29T23:43:06.012Z,94.29
2024-02-29T23:45:34.630Z,94.09
2024-02-29T23:48:03.136Z,94.02
2024-02-29T23:50:33.224Z,94.11
2024-02-29T23:53:01.481Z,94.27
2024-02-29T23:55:30.254Z,94.20
2024-02-29T23:57:58.627Z,94.83
